createdAt,value
2022-11-17T00:02:17.592Z,97800.88
2022-11-17T00:04:48.905Z,97813.37
2022-11-17T00:07:16.024Z,97802.78
2022-11-17T00:09:43.562Z,97800.44
2022-11-17T00:12:32.963Z,97801.28
2022-11-17T00:15:02.095Z,97799.94
2022-11-17T00:17:30.851Z,97799.50
2022-11-17T00:20:16.865Z,97799.00
2022-11-17T00:22:45.602Z,97795.94
2022-11-17T00:25:13.245Z,97787.22
2022-11-17T00:27:40.411Z,97789.84
2022-11-17T00:30:11.647Z,97794.78
2022-11-17T00:32:59.742Z,97793.81
2022-11-17T00:35:27.162Z,97793.81
2022-11-17T00:38:13.246Z,97794.16
2022-11-17T00:40:43.191Z,97788.38
2022-11-17T00:43:10.684Z,97789.72
2022-11-17T00:45:37.820Z,97791.44
2022-11-17T00:48:09.288Z,97795.00
2022-11-17T00:50:38.242Z,97782.91
2022-11-17T00:53:05.655Z,97785.41
2022-11-17T00:55:32.933Z,97784.03
2022-11-17T00:58:01.150Z,97793.19
2022-11-17T01:00:35.964Z,97780.72
2022-11-17T01:03:04.285Z,97784.19
2022-11-17T01:05:34.560Z,97778.38
2022-11-17T01:08:01.677Z,97771.53
2022-11-17T01:10:28.774Z,97774.91
2022-11-17T01:12:57.140Z,97772.06
2022-11-17T01:15:24.532Z,97770.28
2022-11-17T01:17:53.097Z,97768.06
2022-11-17T01:20:21.063Z,97764.94
2022-11-17T01:22:50.207Z,97758.09
2022-11-17T01:25:18.278Z,97759.03
2022-11-17T01:27:48.685Z,97755.78
2022-11-17T01:30:17.796Z,97764.06
2022-11-17T01:32:46.721Z,97759.97
2022-11-17T01:35:16.298Z,97760.72
2022-11-17T01:37:43.522Z,97765.38
2022-11-17T01:40:14.123Z,97765.44
2022-11-17T01:42:42.298Z,97762.72
2022-11-17T01:45:26.887Z,97755.47
2022-11-17T01:48:00.520Z,97752.44
2022-11-17T01:50:40.284Z,97760.81
2022-11-17T01:53:12.367Z,97766.69
2022-11-17T01:55:45.028Z,97770.19
2022-11-17T01:58:18.475Z,97772.81
2022-11-17T02:00:46.576Z,97771.75
2022-11-17T02:03:14.354Z,97780.47
2022-11-17T02:05:55.135Z,97779.09
2022-11-17T02:08:25.444Z,97782.06
2022-11-17T02:10:54.204Z,97793.63
2022-11-17T02:13:23.084Z,97800.13
2022-11-17T02:15:50.819Z,97789.50
2022-11-17T02:18:18.447Z,97785.53
2022-11-17T02:21:11.287Z,97791.22
2022-11-17T02:24:09.782Z,97776.28
2022-11-17T02:26:48.922Z,97762.19
2022-11-17T02:29:52.293Z,97764.94
2022-11-17T02:32:30.365Z,97767.78
2022-11-17T02:35:22.198Z,97756.50
2022-11-17T02:38:19.328Z,97750.63
2022-11-17T02:41:06.680Z,97757.69
2022-11-17T02:44:04.067Z,97752.41
2022-11-17T02:47:18.999Z,97740.94
2022-11-17T02:49:58.500Z,97748.31
2022-11-17T02:52:27.699Z,97743.78
2022-11-17T02:55:04.123Z,97765.03
2022-11-17T02:57:38.178Z,97755.34
2022-11-17T03:00:18.177Z,97742.75
2022-11-17T03:03:03.489Z,97743.13
2022-11-17T03:06:07.825Z,97741.69
2022-11-17T03:08:47.235Z,97732.34
2022-11-17T03:11:22.681Z,97739.38
2022-11-17T03:14:02.595Z,97723.41
2022-11-17T03:16:54.240Z,97728.03
2022-11-17T03:19:56.797Z,97733.88
2022-11-17T03:22:43.894Z,97718.03
2022-11-17T03:25:17.469Z,97715.75
2022-11-17T03:27:49.175Z,97712.38
2022-11-17T03:30:17.854Z,97705.53
2022-11-17T03:32:51.495Z,97700.41
2022-11-17T03:35:23.852Z,97708.56
2022-11-17T03:37:58.971Z,97715.09
2022-11-17T03:40:31.444Z,97725.59
2022-11-17T03:43:02.445Z,97726.22
2022-11-17T03:45:37.783Z,97739.41
2022-11-17T03:48:20.387Z,97754.13
2022-11-17T03:50:59.822Z,97757.59
2022-11-17T03:53:26.953Z,97763.88
2022-11-17T03:56:17.340Z,97763.56
2022-11-17T03:59:00.746Z,97762.13
2022-11-17T04:01:31.427Z,97764.09
2022-11-17T04:03:58.909Z,97767.66
2022-11-17T04:06:26.367Z,97771.31
2022-11-17T04:08:53.403Z,97770.59
2022-11-17T04:11:39.217Z,97764.91
2022-11-17T04:14:25.505Z,97757.94
2022-11-17T04:16:53.923Z,97760.69
2022-11-17T04:19:20.960Z,97754.28
2022-11-17T04:21:48.310Z,97751.41
2022-11-17T04:24:18.336Z,97755.00
2022-11-17T04:27:06.570Z,97756.88
2022-11-17T04:29:36.684Z,97761.88
2022-11-17T04:32:04.410Z,97756.62
2022-11-17T04:34:32.979Z,97750.19
2022-11-17T04:37:05.363Z,97753.97
2022-11-17T04:39:38.728Z,97754.50
2022-11-17T04:42:06.114Z,97765.19
2022-11-17T04:44:33.442Z,97761.16
2022-11-17T04:47:03.291Z,97769.97
2022-11-17T04:49:32.344Z,97778.69
2022-11-17T04:51:59.381Z,97777.00
2022-11-17T04:54:26.451Z,97771.62
2022-11-17T04:56:55.047Z,97780.97
2022-11-17T04:59:22.386Z,97780.69
2022-11-17T05:01:49.793Z,97778.53
2022-11-17T05:04:39.764Z,97787.84
2022-11-17T05:07:08.601Z,97796.16
2022-11-17T05:09:36.238Z,97804.84
2022-11-17T05:12:22.373Z,97802.50
2022-11-17T05:14:50.576Z,97809.81
2022-11-17T05:17:18.120Z,97804.19
2022-11-17T05:19:47.189Z,97806.56
2022-11-17T05:22:39.950Z,97799.13
2022-11-17T05:25:08.501Z,97805.37
2022-11-17T05:27:36.176Z,97800.56
2022-11-17T05:30:05.723Z,97799.47
2022-11-17T05:32:32.809Z,97796.44
2022-11-17T05:35:01.483Z,97792.69
2022-11-17T05:37:28.649Z,97795.66
2022-11-17T05:39:55.679Z,97792.75
2022-11-17T05:42:23.058Z,97786.09
2022-11-17T05:44:51.207Z,97791.16
2022-11-17T05:47:23.773Z,97799.03
2022-11-17T05:49:53.153Z,97801.06
2022-11-17T05:52:20.950Z,97811.13
2022-11-17T05:54:48.124Z,97818.94
2022-11-17T05:57:20.953Z,97823.28
2022-11-17T05:59:59.765Z,97826.09
2022-11-17T06:02:45.289Z,97826.06
2022-11-17T06:05:18.705Z,97824.25
2022-11-17T06:07:51.646Z,97822.31
2022-11-17T06:10:22.969Z,97825.91
2022-11-17T06:12:52.087Z,97825.38
2022-11-17T06:15:21.795Z,97824.62
2022-11-17T06:17:56.205Z,97821.03
2022-11-17T06:20:43.376Z,97823.16
2022-11-17T06:23:12.227Z,97823.66
2022-11-17T06:25:40.351Z,97819.00
2022-11-17T06:28:14.258Z,97812.84
2022-11-17T06:30:44.409Z,97815.22
2022-11-17T06:33:15.667Z,97818.16
2022-11-17T06:35:45.541Z,97815.75
2022-11-17T06:38:14.750Z,97823.72
2022-11-17T06:40:45.314Z,97816.56
2022-11-17T06:43:15.254Z,97826.19
2022-11-17T06:45:47.579Z,97842.44
2022-11-17T06:48:17.310Z,97840.94
2022-11-17T06:50:48.919Z,97850.03
2022-11-17T06:53:17.611Z,97848.72
2022-11-17T06:55:47.826Z,97857.69
2022-11-17T06:58:18.204Z,97854.78
2022-11-17T07:00:48.639Z,97866.19
2022-11-17T07:03:17.802Z,97870.19
2022-11-17T07:05:47.281Z,97873.41
2022-11-17T07:08:19.046Z,97866.31
2022-11-17T07:10:49.309Z,97866.09
2022-11-17T07:13:18.123Z,97874.81
2022-11-17T07:15:46.972Z,97871.16
2022-11-17T07:18:16.719Z,97861.28
2022-11-17T07:20:46.991Z,97865.25
2022-11-17T07:23:18.737Z,97867.63
2022-11-17T07:25:52.355Z,97868.59
2022-11-17T07:28:21.668Z,97868.59
2022-11-17T07:30:59.315Z,97865.53
2022-11-17T07:33:27.690Z,97867.97
2022-11-17T07:35:56.099Z,97870.62
2022-11-17T07:38:25.275Z,97867.47
2022-11-17T07:40:57.614Z,97874.41
2022-11-17T07:43:25.440Z,97870.22
2022-11-17T07:45:53.382Z,97875.75
2022-11-17T07:48:21.779Z,97878.41
2022-11-17T07:50:49.383Z,97880.28
2022-11-17T07:53:17.720Z,97880.72
2022-11-17T07:55:47.119Z,97873.97
2022-11-17T07:58:15.207Z,97873.25
2022-11-17T08:00:44.305Z,97871.66
2022-11-17T08:03:13.975Z,97878.41
2022-11-17T08:05:43.717Z,97871.12
2022-11-17T08:08:13.132Z,97864.91
2022-11-17T08:10:41.106Z,97869.31
2022-11-17T08:13:11.080Z,97870.78
2022-11-17T08:15:38.576Z,97873.53
2022-11-17T08:18:09.083Z,97878.75
2022-11-17T08:20:42.628Z,97883.91
2022-11-17T08:23:10.212Z,97884.47
2022-11-17T08:25:37.424Z,97881.63
2022-11-17T08:28:06.689Z,97887.06
2022-11-17T08:30:36.131Z,97880.56
2022-11-17T08:33:03.938Z,97875.22
2022-11-17T08:35:37.302Z,97886.72
2022-11-17T08:38:06.014Z,97883.06
2022-11-17T08:40:33.858Z,97885.16
2022-11-17T08:43:03.791Z,97895.59
2022-11-17T08:45:36.705Z,97898.97
2022-11-17T08:48:09.980Z,97901.59
2022-11-17T08:50:39.537Z,97900.91
2022-11-17T08:53:17.393Z,97891.72
2022-11-17T08:55:48.471Z,97903.16
2022-11-17T08:58:19.786Z,97897.44
2022-11-17T09:00:51.002Z,97897.03
2022-11-17T09:03:18.410Z,97888.84
2022-11-17T09:05:50.902Z,97894.19
2022-11-17T09:08:49.201Z,97900.81
2022-11-17T09:11:11.839Z,97902.59
2022-11-17T09:13:42.637Z,97902.22
2022-11-17T09:16:12.563Z,97903.25
2022-11-17T09:18:41.554Z,97911.78
2022-11-17T09:21:15.746Z,97916.34
2022-11-17T09:24:02.599Z,97912.53
2022-11-17T09:26:31.456Z,97921.75
2022-11-17T09:29:03.273Z,97920.00
2022-11-17T09:31:30.973Z,97906.69
2022-11-17T09:34:00.830Z,97910.16
2022-11-17T09:36:32.297Z,97908.25
2022-11-17T09:39:02.530Z,97911.53
2022-11-17T09:41:48.184Z,97901.22
2022-11-17T09:44:39.843Z,97901.56
2022-11-17T09:47:36.207Z,97902.53
2022-11-17T09:50:28.176Z,97900.50
2022-11-17T09:53:07.829Z,97896.44
2022-11-17T09:55:39.796Z,97890.28
2022-11-17T09:58:33.954Z,97888.38
2022-11-17T10:01:02.006Z,97888.47
2022-11-17T10:03:40.083Z,97886.84
2022-11-17T10:06:23.120Z,97878.28
2022-11-17T10:09:01.233Z,97880.63
2022-11-17T10:11:34.133Z,97887.66
2022-11-17T10:14:08.437Z,97891.50
2022-11-17T10:16:37.772Z,97890.94
2022-11-17T10:19:15.818Z,97894.66
2022-11-17T10:21:43.011Z,97892.13
2022-11-17T10:24:10.655Z,97885.38
2022-11-17T10:26:48.652Z,97885.72
2022-11-17T10:29:23.243Z,97883.81
2022-11-17T10:31:50.598Z,97891.38
2022-11-17T10:34:38.812Z,97885.06
2022-11-17T10:37:13.511Z,97886.00
2022-11-17T10:39:43.298Z,97881.69
2022-11-17T10:42:25.395Z,97887.91
2022-11-17T10:44:58.588Z,97893.66
2022-11-17T10:47:44.231Z,97899.25
2022-11-17T10:50:31.931Z,97897.31
2022-11-17T10:53:21.366Z,97896.38
2022-11-17T10:55:54.761Z,97888.00
2022-11-17T10:58:24.597Z,97902.16
2022-11-17T11:00:59.062Z,97890.91
2022-11-17T11:03:31.191Z,97894.66
2022-11-17T11:06:02.783Z,97880.16
2022-11-17T11:08:38.582Z,97881.53
2022-11-17T11:11:16.047Z,97872.44
2022-11-17T11:13:52.145Z,97873.03
2022-11-17T11:16:20.261Z,97863.38
2022-11-17T11:18:52.889Z,97868.03
2022-11-17T11:21:28.312Z,97877.97
2022-11-17T11:24:10.513Z,97877.25
2022-11-17T11:27:00.793Z,97880.19
2022-11-17T11:29:59.366Z,97888.28
2022-11-17T11:33:03.359Z,97882.22
2022-11-17T11:36:15.574Z,97882.16
2022-11-17T11:38:55.230Z,97884.09
2022-11-17T11:41:47.860Z,97873.78
2022-11-17T11:44:38.710Z,97879.06
2022-11-17T11:47:07.460Z,97883.50
2022-11-17T11:49:59.930Z,97883.91
2022-11-17T11:52:35.681Z,97886.03
2022-11-17T11:55:20.954Z,97879.16
2022-11-17T11:58:06.004Z,97872.06
2022-11-17T12:00:37.450Z,97864.19
2022-11-17T12:03:20.843Z,97872.84
2022-11-17T12:06:25.171Z,97868.91
2022-11-17T12:09:07.323Z,97880.94
2022-11-17T12:11:53.649Z,97881.72
2022-11-17T12:14:22.089Z,97879.06
2022-11-17T12:16:49.543Z,97879.81
2022-11-17T12:19:50.297Z,97871.03
2022-11-17T12:22:22.704Z,97864.97
2022-11-17T12:24:56.371Z,97865.53
2022-11-17T12:27:35.858Z,97872.91
2022-11-17T12:30:12.367Z,97878.66
2022-11-17T12:32:49.490Z,97885.16
2022-11-17T12:35:27.252Z,97886.62
2022-11-17T12:38:22.186Z,97889.41
2022-11-17T12:40:51.237Z,97884.53
2022-11-17T12:43:25.465Z,97886.38
2022-11-17T12:45:52.425Z,97888.00
2022-11-17T12:48:33.489Z,97880.91
2022-11-17T12:51:07.661Z,97885.22
2022-11-17T12:53:39.937Z,97887.31
2022-11-17T12:56:19.775Z,97884.28
2022-11-17T12:59:17.846Z,97882.37
2022-11-17T13:02:21.866Z,97884.38
2022-11-17T13:04:57.148Z,97883.81
2022-11-17T13:07:26.212Z,97883.78
2022-11-17T13:09:58.980Z,97900.31
2022-11-17T13:12:30.649Z,97900.25
2022-11-17T13:15:00.420Z,97900.50
2022-11-17T13:17:39.653Z,97899.44
2022-11-17T13:20:28.814Z,97891.63
2022-11-17T13:23:26.111Z,97898.19
2022-11-17T13:26:37.863Z,97901.38
2022-11-17T13:29:13.815Z,97901.03
2022-11-17T13:31:41.225Z,97913.41
2022-11-17T13:34:17.454Z,97913.56
2022-11-17T13:37:00.132Z,97904.09
2022-11-17T13:39:28.131Z,97917.09
2022-11-17T13:42:01.065Z,97928.00
2022-11-17T13:44:28.863Z,97924.44
2022-11-17T13:46:56.222Z,97913.88
2022-11-17T13:49:36.207Z,97914.47
2022-11-17T13:52:14.213Z,97921.31
2022-11-17T13:54:45.017Z,97924.69
2022-11-17T13:57:25.326Z,97928.06
2022-11-17T13:59:53.189Z,97928.22
2022-11-17T14:02:20.411Z,97922.19
2022-11-17T14:05:14.473Z,97916.56
2022-11-17T14:07:43.561Z,97909.47
2022-11-17T14:10:19.960Z,97913.91
2022-11-17T14:13:13.932Z,97912.75
2022-11-17T14:15:42.744Z,97912.87
2022-11-17T14:18:34.277Z,97910.88
2022-11-17T14:21:15.262Z,97904.50
2022-11-17T14:23:44.260Z,97904.00
2022-11-17T14:26:24.930Z,97899.94
2022-11-17T14:28:52.654Z,97903.91
2022-11-17T14:31:20.122Z,97901.34
2022-11-17T14:33:47.260Z,97909.56
2022-11-17T14:36:16.711Z,97906.91
2022-11-17T14:38:45.418Z,97910.09
2022-11-17T14:41:16.109Z,97917.78
2022-11-17T14:43:43.639Z,97923.41
2022-11-17T14:46:18.889Z,97921.47
2022-11-17T14:48:46.258Z,97914.50
2022-11-17T14:51:15.618Z,97917.75
2022-11-17T14:53:44.093Z,97916.44
2022-11-17T14:56:16.383Z,97921.13
2022-11-17T14:58:43.621Z,97914.72
2022-11-17T15:01:15.487Z,97915.91
2022-11-17T15:03:42.924Z,97912.56
2022-11-17T15:06:18.211Z,97910.13
2022-11-17T15:08:58.310Z,97914.94
2022-11-17T15:11:26.622Z,97909.50
2022-11-17T15:13:54.005Z,97916.41
2022-11-17T15:16:21.127Z,97914.56
2022-11-17T15:18:48.614Z,97915.38
2022-11-17T15:21:17.014Z,97927.19
2022-11-17T15:23:44.647Z,97922.91
2022-11-17T15:26:14.324Z,97929.13
2022-11-17T15:28:42.063Z,97923.69
2022-11-17T15:31:18.305Z,97916.31
2022-11-17T15:33:47.105Z,97927.06
2022-11-17T15:36:16.833Z,97923.72
2022-11-17T15:38:43.968Z,97915.31
2022-11-17T15:41:12.596Z,97919.75
2022-11-17T15:43:41.576Z,97908.25
2022-11-17T15:46:18.694Z,97913.41
2022-11-17T15:48:49.122Z,97914.03
2022-11-17T15:51:18.268Z,97909.72
2022-11-17T15:53:48.890Z,97908.84
2022-11-17T15:56:21.421Z,97906.13
2022-11-17T15:58:54.296Z,97911.28
2022-11-17T16:01:24.948Z,97912.00
2022-11-17T16:03:56.634Z,97906.00
2022-11-17T16:06:23.810Z,97900.19
2022-11-17T16:08:51.999Z,97897.44
2022-11-17T16:11:19.335Z,97898.25
2022-11-17T16:13:46.760Z,97894.47
2022-11-17T16:16:15.316Z,97890.97
2022-11-17T16:18:42.686Z,97878.75
2022-11-17T16:21:12.342Z,97872.53
2022-11-17T16:23:39.508Z,97873.31
2022-11-17T16:26:07.501Z,97881.63
2022-11-17T16:28:34.655Z,97888.34
2022-11-17T16:31:18.895Z,97892.81
2022-11-17T16:33:56.660Z,97894.62
2022-11-17T16:36:28.995Z,97900.06
2022-11-17T16:39:01.510Z,97916.09
2022-11-17T16:41:32.521Z,97926.19
2022-11-17T16:44:00.504Z,97937.53
2022-11-17T16:46:30.299Z,97942.56
2022-11-17T16:49:01.724Z,97952.16
2022-11-17T16:51:29.234Z,97955.00
2022-11-17T16:53:59.050Z,97951.88
2022-11-17T16:56:26.301Z,97953.06
2022-11-17T16:58:54.831Z,97974.66
2022-11-17T17:01:24.597Z,97977.94
2022-11-17T17:03:56.031Z,97974.69
2022-11-17T17:06:23.710Z,97975.44
2022-11-17T17:08:55.501Z,97977.94
2022-11-17T17:11:23.090Z,97975.13
2022-11-17T17:13:50.495Z,97975.25
2022-11-17T17:16:19.488Z,97977.22
2022-11-17T17:18:46.906Z,97977.31
2022-11-17T17:21:17.181Z,97973.56
2022-11-17T17:23:45.667Z,97965.06
2022-11-17T17:26:16.846Z,97959.59
2022-11-17T17:28:46.401Z,97976.66
2022-11-17T17:31:20.971Z,97974.22
2022-11-17T17:33:50.739Z,97974.31
2022-11-17T17:36:20.777Z,97960.09
2022-11-17T17:38:53.616Z,97965.28
2022-11-17T17:41:27.220Z,97966.00
2022-11-17T17:43:57.138Z,97960.88
2022-11-17T17:46:25.226Z,97956.22
2022-11-17T17:48:52.556Z,97959.19
2022-11-17T17:51:21.433Z,97951.69
2022-11-17T17:53:51.456Z,97952.00
2022-11-17T17:56:20.613Z,97962.12
2022-11-17T17:58:51.837Z,97973.19
2022-11-17T18:01:25.020Z,97968.56
2022-11-17T18:03:53.996Z,97958.09
2022-11-17T18:06:22.291Z,97958.97
2022-11-17T18:08:49.993Z,97962.09
2022-11-17T18:11:19.832Z,97968.66
2022-11-17T18:13:52.429Z,97960.75
2022-11-17T18:16:24.281Z,97960.03
2022-11-17T18:18:57.107Z,97959.81
2022-11-17T18:21:25.438Z,97956.78
2022-11-17T18:23:53.598Z,97950.53
2022-11-17T18:26:25.921Z,97944.44
2022-11-17T18:29:05.111Z,97940.56
2022-11-17T18:31:34.009Z,97942.03
2022-11-17T18:34:04.628Z,97947.72
2022-11-17T18:36:32.161Z,97936.75
2022-11-17T18:39:02.090Z,97937.81
2022-11-17T18:41:30.958Z,97937.09
2022-11-17T18:43:58.657Z,97931.09
2022-11-17T18:46:30.712Z,97920.97
2022-11-17T18:48:58.603Z,97935.72
2022-11-17T18:51:28.161Z,97931.09
2022-11-17T18:53:57.392Z,97923.53
2022-11-17T18:56:27.286Z,97929.50
2022-11-17T18:58:54.488Z,97931.31
2022-11-17T19:01:28.055Z,97946.13
2022-11-17T19:03:58.074Z,97940.69
2022-11-17T19:06:25.774Z,97945.22
2022-11-17T19:08:53.807Z,97946.28
2022-11-17T19:11:22.409Z,97940.81
2022-11-17T19:13:49.945Z,97930.16
2022-11-17T19:16:19.579Z,97928.16
2022-11-17T19:18:48.449Z,97935.53
2022-11-17T19:21:30.817Z,97935.56
2022-11-17T19:24:00.352Z,97935.56
2022-11-17T19:26:29.894Z,97936.50
2022-11-17T19:29:02.244Z,97931.47
2022-11-17T19:31:29.960Z,97933.72
2022-11-17T19:33:57.961Z,97933.03
2022-11-17T19:36:29.902Z,97927.84
2022-11-17T19:38:58.739Z,97931.09
2022-11-17T19:41:26.842Z,97938.53
2022-11-17T19:43:58.436Z,97923.13
2022-11-17T19:46:27.571Z,97901.75
2022-11-17T19:48:58.283Z,97886.06
2022-11-17T19:51:29.218Z,97880.91
2022-11-17T19:54:01.644Z,97893.12
2022-11-17T19:56:29.347Z,97900.16
2022-11-17T19:58:56.987Z,97889.75
2022-11-17T20:01:28.982Z,97892.38
2022-11-17T20:03:57.563Z,97911.00
2022-11-17T20:06:28.778Z,97915.22
2022-11-17T20:08:57.407Z,97922.38
2022-11-17T20:11:27.200Z,97915.34
2022-11-17T20:13:55.184Z,97901.88
2022-11-17T20:16:24.720Z,97904.50
2022-11-17T20:18:57.592Z,97883.25
2022-11-17T20:21:26.107Z,97866.06
2022-11-17T20:23:54.315Z,97897.03
2022-11-17T20:26:26.746Z,97919.22
2022-11-17T20:28:55.225Z,97929.97
2022-11-17T20:31:31.232Z,97923.31
2022-11-17T20:34:00.709Z,97932.38
2022-11-17T20:36:29.889Z,97928.28
2022-11-17T20:39:00.191Z,97927.53
2022-11-17T20:41:28.233Z,97927.19
2022-11-17T20:43:56.383Z,97929.31
2022-11-17T20:46:24.215Z,97921.09
2022-11-17T20:48:52.138Z,97929.00
2022-11-17T20:51:24.303Z,97931.81
2022-11-17T20:53:51.784Z,97928.47
2022-11-17T20:56:19.028Z,97925.84
2022-11-17T20:58:46.123Z,97912.50
2022-11-17T21:01:19.219Z,97928.37
2022-11-17T21:03:46.736Z,97930.91
2022-11-17T21:06:15.398Z,97917.00
2022-11-17T21:08:44.329Z,97927.66
2022-11-17T21:11:46.888Z,97922.16
2022-11-17T21:14:14.316Z,97916.66
2022-11-17T21:16:45.475Z,97907.50
2022-11-17T21:19:14.270Z,97911.72
2022-11-17T21:21:42.973Z,97916.03
2022-11-17T21:24:10.248Z,97910.22
2022-11-17T21:26:37.604Z,97911.19
2022-11-17T21:29:06.836Z,97906.97
2022-11-17T21:31:35.086Z,97925.78
2022-11-17T21:34:04.593Z,97931.22
2022-11-17T21:36:33.406Z,97934.87
2022-11-17T21:39:00.892Z,97925.25
2022-11-17T21:41:30.157Z,97918.28
2022-11-17T21:44:02.095Z,97911.56
2022-11-17T21:46:31.925Z,97904.81
2022-11-17T21:49:01.406Z,97892.13
2022-11-17T21:51:34.153Z,97889.78
2022-11-17T21:54:04.361Z,97902.91
2022-11-17T21:56:32.195Z,97915.72
2022-11-17T21:59:01.440Z,97908.34
2022-11-17T22:01:30.062Z,97910.22
2022-11-17T22:03:57.506Z,97906.97
2022-11-17T22:06:26.085Z,97903.69
2022-11-17T22:08:54.684Z,97907.25
2022-11-17T22:11:38.181Z,97921.25
2022-11-17T22:14:08.355Z,97917.66
2022-11-17T22:16:38.150Z,97912.41
2022-11-17T22:19:06.135Z,97898.53
2022-11-17T22:21:33.229Z,97905.56
2022-11-17T22:24:00.574Z,97903.91
2022-11-17T22:26:29.344Z,97880.97
2022-11-17T22:28:56.387Z,97886.28
2022-11-17T22:31:24.274Z,97899.22
2022-11-17T22:33:51.624Z,97889.13
2022-11-17T22:36:19.393Z,97893.41
2022-11-17T22:38:50.290Z,97903.19
2022-11-17T22:41:18.667Z,97895.84
2022-11-17T22:43:53.104Z,97887.25
2022-11-17T22:46:22.033Z,97887.25
2022-11-17T22:48:49.511Z,97889.31
2022-11-17T22:51:36.130Z,97881.81
2022-11-17T22:54:04.722Z,97882.78
2022-11-17T22:56:32.321Z,97871.62
2022-11-17T22:59:00.058Z,97868.25
2022-11-17T23:01:27.700Z,97868.25
2022-11-17T23:03:54.787Z,97865.81
2022-11-17T23:06:22.904Z,97869.31
2022-11-17T23:08:50.714Z,97872.84
2022-11-17T23:14:08.017Z,97867.41
2022-11-17T23:16:36.746Z,97871.81
2022-11-17T23:19:04.501Z,97869.31
2022-11-17T23:21:32.150Z,97866.75
2022-11-17T23:23:59.177Z,97867.41
2022-11-17T23:26:26.256Z,97864.97
2022-11-17T23:28:53.620Z,97862.66
2022-11-17T23:31:20.854Z,97874.09
2022-11-17T23:33:49.018Z,97873.69
2022-11-17T23:36:19.282Z,97860.47
2022-11-17T23:38:47.410Z,97867.03
2022-11-17T23:41:16.930Z,97861.56
2022-11-17T23:43:44.712Z,97866.00
2022-11-17T23:46:14.001Z,97853.91
2022-11-17T23:48:42.456Z,97854.66
2022-11-17T23:51:15.152Z,97844.87
2022-11-17T23:53:43.000Z,97848.62
2022-11-17T23:56:10.771Z,97855.03
2022-11-17T23:58:37.818Z,97853.56
